createdAt,value
2022-11-24T00:00:58.922Z,42.92
2022-11-24T00:01:58.978Z,47.13
2022-11-24T00:02:59.001Z,54.66
2022-11-24T00:03:58.950Z,43.29
2022-11-24T00:04:58.923Z,43.05
2022-11-24T00:05:58.908Z,53.78
2022-11-24T00:06:58.875Z,43.76
2022-11-24T00:07:58.906Z,43.14
2022-11-24T00:08:58.853Z,43.24
2022-11-24T00:09:58.863Z,51.97
2022-11-24T00:10:58.830Z,54.34
2022-11-24T00:11:58.826Z,43.93
2022-11-24T00:12:59.612Z,51.08
2022-11-24T00:13:58.811Z,44.85
2022-11-24T00:14:58.859Z,51.63
2022-11-24T00:15:58.811Z,44.66
2022-11-24T00:16:58.871Z,48.37
2022-11-24T00:18:00.482Z,43.30
2022-11-24T00:18:58.816Z,42.98
2022-11-24T00:19:58.758Z,42.77
2022-11-24T00:20:58.770Z,42.85
2022-11-24T00:21:58.769Z,50.19
2022-11-24T00:22:58.726Z,43.80
2022-11-24T00:23:58.766Z,53.69
2022-11-24T00:24:58.756Z,56.77
2022-11-24T00:25:58.708Z,45.08
2022-11-24T00:26:58.743Z,52.13
2022-11-24T00:27:58.713Z,57.53
2022-11-24T00:28:58.689Z,43.28
2022-11-24T00:29:58.696Z,42.82
2022-11-24T00:30:58.736Z,47.73
2022-11-24T00:31:58.725Z,52.35
2022-11-24T00:32:58.681Z,43.29
2022-11-24T00:33:58.673Z,43.17
2022-11-24T00:34:58.650Z,50.22
2022-11-24T00:35:58.634Z,43.62
2022-11-24T00:36:58.745Z,49.00
2022-11-24T00:37:58.648Z,50.45
2022-11-24T00:38:58.712Z,52.72
2022-11-24T00:39:58.607Z,52.81
2022-11-24T00:40:58.620Z,51.74
2022-11-24T00:41:58.608Z,43.07
2022-11-24T00:42:58.610Z,42.94
2022-11-24T00:43:58.606Z,45.99
2022-11-24T00:44:58.583Z,43.11
2022-11-24T00:45:58.723Z,50.95
2022-11-24T00:46:58.637Z,49.17
2022-11-24T00:47:58.578Z,44.89
2022-11-24T00:48:58.603Z,44.97
2022-11-24T00:49:58.538Z,44.98
2022-11-24T00:50:58.536Z,44.69
2022-11-24T00:51:58.548Z,44.71
2022-11-24T00:52:58.567Z,50.10
2022-11-24T00:53:58.534Z,50.03
2022-11-24T00:54:58.494Z,44.19
2022-11-24T00:55:58.524Z,47.79
2022-11-24T00:56:58.527Z,43.53
2022-11-24T00:57:58.488Z,50.24
2022-11-24T00:58:58.479Z,50.76
2022-11-24T00:59:58.480Z,43.14
2022-11-24T01:00:58.530Z,50.58
2022-11-24T01:01:58.503Z,42.99
2022-11-24T01:02:58.518Z,42.87
2022-11-24T01:03:58.455Z,42.98
2022-11-24T01:04:58.463Z,42.71
2022-11-24T01:05:58.429Z,42.83
2022-11-24T01:06:58.449Z,42.77
2022-11-24T01:07:58.433Z,42.85
2022-11-24T01:08:58.385Z,42.79
2022-11-24T01:09:58.409Z,50.07
2022-11-24T01:10:58.390Z,48.75
2022-11-24T01:11:58.396Z,43.45
2022-11-24T01:12:58.399Z,59.55
2022-11-24T01:13:58.360Z,58.45
2022-11-24T01:14:58.379Z,51.83
2022-11-24T01:15:58.388Z,50.30
2022-11-24T01:16:58.364Z,54.05
2022-11-24T01:17:59.174Z,59.60
2022-11-24T01:18:58.328Z,47.98
2022-11-24T01:19:58.302Z,58.51
2022-11-24T01:20:58.306Z,56.15
2022-11-24T01:21:58.319Z,52.95
2022-11-24T01:22:58.309Z,52.44
2022-11-24T01:23:58.301Z,49.64
2022-11-24T01:24:58.295Z,52.85
2022-11-24T01:25:58.309Z,43.13
2022-11-24T01:26:58.325Z,47.94
2022-11-24T01:27:58.288Z,45.03
2022-11-24T01:28:58.251Z,51.59
2022-11-24T01:29:58.242Z,48.09
2022-11-24T01:30:58.307Z,50.46
2022-11-24T01:31:58.265Z,45.78
2022-11-24T01:32:58.209Z,51.64
2022-11-24T01:33:58.215Z,46.59
2022-11-24T01:34:58.234Z,60.58
2022-11-24T01:35:58.185Z,55.63
2022-11-24T01:36:58.190Z,44.13
2022-11-24T01:37:58.198Z,43.34
2022-11-24T01:38:58.201Z,51.09
2022-11-24T01:40:05.613Z,52.06
2022-11-24T01:40:59.157Z,60.18
2022-11-24T01:41:58.149Z,54.15
2022-11-24T01:42:58.202Z,51.91
2022-11-24T01:43:58.130Z,47.03
2022-11-24T01:44:58.177Z,48.77
2022-11-24T01:45:58.160Z,51.58
2022-11-24T01:46:58.146Z,43.97
2022-11-24T01:47:58.117Z,51.26
2022-11-24T01:48:58.142Z,50.38
2022-11-24T01:49:58.068Z,45.06
2022-11-24T01:50:58.071Z,50.61
2022-11-24T01:51:58.063Z,44.18
2022-11-24T01:52:58.067Z,56.44
2022-11-24T01:53:58.075Z,47.65
2022-11-24T01:54:58.067Z,43.81
2022-11-24T01:55:58.049Z,44.43
2022-11-24T01:56:58.051Z,48.81
2022-11-24T01:57:58.046Z,56.12
2022-11-24T01:58:58.030Z,56.47
2022-11-24T01:59:58.038Z,53.96
2022-11-24T02:00:58.002Z,43.63
2022-11-24T02:01:58.037Z,49.24
2022-11-24T02:02:58.076Z,44.79
2022-11-24T02:03:57.979Z,53.61
2022-11-24T02:04:58.014Z,43.50
2022-11-24T02:05:57.979Z,44.73
2022-11-24T02:06:58.957Z,50.86
2022-11-24T02:07:57.967Z,47.45
2022-11-24T02:08:57.954Z,49.95
2022-11-24T02:09:57.951Z,49.39
2022-11-24T02:10:57.962Z,66.02
2022-11-24T02:11:57.923Z,53.00
2022-11-24T02:12:57.918Z,42.82
2022-11-24T02:13:57.915Z,42.80
2022-11-24T02:14:57.917Z,42.94
2022-11-24T02:15:57.952Z,49.93
2022-11-24T02:16:57.875Z,54.26
2022-11-24T02:17:57.882Z,43.45
2022-11-24T02:18:57.884Z,43.30
2022-11-24T02:19:57.855Z,51.17
2022-11-24T02:20:57.857Z,51.17
2022-11-24T02:21:57.880Z,56.90
2022-11-24T02:22:57.849Z,46.58
2022-11-24T02:23:57.816Z,44.87
2022-11-24T02:24:57.854Z,42.82
2022-11-24T02:25:57.835Z,42.84
2022-11-24T02:26:57.809Z,48.28
2022-11-24T02:27:57.803Z,42.90
2022-11-24T02:28:58.720Z,42.85
2022-11-24T02:30:29.726Z,42.95
2022-11-24T02:30:57.811Z,42.79
2022-11-24T02:31:57.841Z,43.04
2022-11-24T02:32:57.784Z,43.15
2022-11-24T02:33:57.757Z,49.34
2022-11-24T02:34:57.742Z,42.90
2022-11-24T02:35:57.763Z,43.04
2022-11-24T02:36:57.715Z,43.21
2022-11-24T02:37:57.732Z,43.12
2022-11-24T02:38:57.699Z,43.66
2022-11-24T02:39:57.765Z,48.01
2022-11-24T02:40:58.684Z,46.64
2022-11-24T02:41:57.681Z,53.17
2022-11-24T02:42:57.696Z,42.99
2022-11-24T02:43:57.696Z,42.98
2022-11-24T02:44:57.669Z,43.06
2022-11-24T02:45:57.738Z,43.06
2022-11-24T02:46:57.651Z,50.05
2022-11-24T02:47:57.662Z,48.12
2022-11-24T02:48:57.644Z,53.94
2022-11-24T02:49:57.652Z,48.45
2022-11-24T02:50:57.646Z,52.99
2022-11-24T02:51:57.606Z,47.37
2022-11-24T02:52:57.601Z,45.38
2022-11-24T02:53:57.621Z,52.58
2022-11-24T02:54:57.583Z,45.36
2022-11-24T02:55:57.591Z,49.94
2022-11-24T02:56:57.599Z,49.10
2022-11-24T02:57:57.565Z,43.59
2022-11-24T02:58:57.575Z,43.42
2022-11-24T02:59:57.557Z,43.29
2022-11-24T03:00:57.553Z,52.50
2022-11-24T03:01:57.610Z,43.45
2022-11-24T03:02:57.594Z,43.37
2022-11-24T03:03:57.541Z,43.96
2022-11-24T03:04:57.527Z,44.71
2022-11-24T03:05:57.533Z,52.00
2022-11-24T03:06:57.513Z,49.57
2022-11-24T03:07:57.522Z,44.35
2022-11-24T03:08:57.484Z,45.22
2022-11-24T03:09:57.509Z,50.57
2022-11-24T03:10:57.523Z,51.62
2022-11-24T03:11:57.456Z,44.23
2022-11-24T03:12:57.454Z,50.97
2022-11-24T03:13:57.472Z,56.99
2022-11-24T03:14:57.449Z,56.11
2022-11-24T03:15:57.570Z,46.30
2022-11-24T03:16:57.434Z,48.04
2022-11-24T03:17:57.441Z,43.99
2022-11-24T03:18:57.403Z,44.12
2022-11-24T03:20:03.091Z,50.98
2022-11-24T03:20:59.384Z,45.41
2022-11-24T03:21:57.392Z,45.69
2022-11-24T03:22:57.394Z,45.58
2022-11-24T03:23:57.394Z,45.68
2022-11-24T03:24:57.405Z,54.40
2022-11-24T03:25:57.362Z,47.22
2022-11-24T03:26:57.358Z,46.98
2022-11-24T03:27:57.361Z,53.93
2022-11-24T03:28:57.391Z,53.49
2022-11-24T03:29:57.362Z,55.59
2022-11-24T03:30:57.471Z,51.23
2022-11-24T03:31:57.326Z,48.95
2022-11-24T03:32:57.306Z,50.89
2022-11-24T03:33:57.306Z,44.22
2022-11-24T03:34:57.295Z,55.00
2022-11-24T03:35:57.281Z,61.32
2022-11-24T03:36:57.306Z,56.16
2022-11-24T03:37:57.261Z,53.32
2022-11-24T03:38:57.252Z,59.85
2022-11-24T03:39:57.261Z,45.41
2022-11-24T03:40:57.232Z,54.21
2022-11-24T03:41:57.250Z,60.04
2022-11-24T03:42:57.238Z,44.68
2022-11-24T03:43:57.294Z,46.08
2022-11-24T03:44:57.198Z,59.73
2022-11-24T03:45:57.325Z,54.06
2022-11-24T03:46:57.185Z,51.62
2022-11-24T03:47:57.205Z,52.44
2022-11-24T04:04:14.576Z,49.32
2022-11-24T04:05:14.572Z,57.83
2022-11-24T04:06:15.686Z,59.73
2022-11-24T04:07:16.353Z,56.34
2022-11-24T04:08:15.696Z,52.44
2022-11-24T04:09:15.655Z,59.08
2022-11-24T04:10:15.655Z,56.91
2022-11-24T04:11:15.686Z,61.19
2022-11-24T04:12:15.669Z,64.22
2022-11-24T04:13:15.657Z,50.27
2022-11-24T04:14:15.756Z,54.79
2022-11-24T04:15:15.686Z,61.58
2022-11-24T04:16:15.732Z,50.39
2022-11-24T04:17:15.793Z,55.75
2022-11-24T04:18:15.601Z,56.81
2022-11-24T04:19:15.601Z,48.01
2022-11-24T04:20:15.617Z,55.55
2022-11-24T04:21:15.591Z,57.05
2022-11-24T04:25:13.212Z,61.77
2022-11-24T04:26:13.382Z,60.43
2022-11-24T04:27:13.204Z,58.01
2022-11-24T04:28:13.186Z,67.05
2022-11-24T04:29:13.251Z,62.67
2022-11-24T04:30:14.306Z,63.65
2022-11-24T04:31:14.380Z,58.09
2022-11-24T04:32:14.272Z,68.04
2022-11-24T04:33:14.304Z,63.86
2022-11-24T04:34:14.496Z,60.32
2022-11-24T04:35:14.263Z,57.86
2022-11-24T04:36:14.403Z,62.03
2022-11-24T04:37:14.234Z,56.38
2022-11-24T04:38:14.227Z,67.64
2022-11-24T04:39:22.972Z,65.56
2022-11-24T04:40:15.250Z,60.03
2022-11-24T04:41:14.232Z,64.77
2022-11-24T04:42:14.268Z,68.21
2022-11-24T04:43:14.244Z,63.69
2022-11-24T04:44:14.187Z,66.57
2022-11-24T04:45:14.194Z,68.86
2022-11-24T04:46:14.301Z,62.09
2022-11-24T04:47:14.188Z,64.05
2022-11-24T04:48:14.158Z,72.14
2022-11-24T04:49:14.188Z,68.21
2022-11-24T04:50:14.163Z,64.28
2022-11-24T04:51:14.168Z,66.35
2022-11-24T04:52:14.146Z,63.94
2022-11-24T04:53:14.184Z,65.32
2022-11-24T04:54:14.149Z,49.13
2022-11-24T04:55:14.096Z,65.71
2022-11-24T04:56:14.088Z,65.99
2022-11-24T04:57:14.166Z,62.59
2022-11-24T04:58:14.076Z,65.57
2022-11-24T04:59:14.123Z,61.69
2022-11-24T05:00:14.078Z,62.10
2022-11-24T05:01:14.138Z,62.68
2022-11-24T05:02:14.098Z,65.72
2022-11-24T05:03:14.042Z,64.95
2022-11-24T05:04:14.119Z,49.63
2022-11-24T05:05:14.034Z,61.12
2022-11-24T05:06:14.052Z,64.83
2022-11-24T05:07:18.302Z,67.26
2022-11-24T05:08:16.037Z,63.37
2022-11-24T05:09:14.094Z,56.88
2022-11-24T05:10:14.039Z,64.64
2022-11-24T05:11:13.991Z,69.88
2022-11-24T05:12:13.971Z,66.91
2022-11-24T05:13:13.955Z,65.52
2022-11-24T05:14:13.966Z,62.37
2022-11-24T05:15:14.009Z,70.67
2022-11-24T05:16:14.076Z,62.71
2022-11-24T05:17:14.061Z,67.95
2022-11-24T05:18:13.995Z,61.29
2022-11-24T05:19:13.955Z,68.02
2022-11-24T05:20:13.983Z,62.79
2022-11-24T05:21:13.928Z,64.87
2022-11-24T05:22:45.916Z,59.52
2022-11-24T05:23:13.900Z,67.37
2022-11-24T05:24:45.843Z,67.90
2022-11-24T05:25:13.886Z,75.20
2022-11-24T05:26:14.001Z,70.29
2022-11-24T05:27:45.961Z,67.49
2022-11-24T05:28:46.246Z,64.16
2022-11-24T05:29:45.807Z,68.63
2022-11-24T05:30:45.783Z,69.73
2022-11-24T05:31:45.877Z,64.79
2022-11-24T05:32:45.721Z,67.00
2022-11-24T05:33:13.809Z,69.53
2022-11-24T05:34:13.796Z,67.75
2022-11-24T05:38:18.531Z,69.71
2022-11-24T05:42:10.288Z,69.39
2022-11-24T05:43:11.433Z,68.29
2022-11-24T05:44:11.428Z,65.80
2022-11-24T05:45:11.474Z,70.78
2022-11-24T05:46:12.115Z,67.02
2022-11-24T05:47:11.371Z,68.74
2022-11-24T05:48:12.420Z,68.60
2022-11-24T05:49:11.351Z,69.76
2022-11-24T05:50:11.367Z,65.21
2022-11-24T05:51:11.350Z,68.66
2022-11-24T05:52:11.371Z,69.63
2022-11-24T05:53:11.377Z,67.74
2022-11-24T05:54:11.339Z,70.74
2022-11-24T05:55:11.342Z,63.38
2022-11-24T05:56:11.362Z,65.94
2022-11-24T05:57:11.297Z,65.27
2022-11-24T05:58:11.726Z,63.71
2022-11-24T05:59:11.387Z,69.14
2022-11-24T06:00:11.570Z,62.49
2022-11-24T06:01:11.290Z,68.82
2022-11-24T06:02:11.471Z,72.23
2022-11-24T06:03:11.389Z,69.64
2022-11-24T06:04:11.258Z,67.03
2022-11-24T06:05:11.261Z,72.32
2022-11-24T06:06:11.259Z,72.07
2022-11-24T06:07:11.268Z,65.38
2022-11-24T06:08:11.209Z,63.96
2022-11-24T06:09:11.232Z,72.97
2022-11-24T06:10:11.218Z,71.88
2022-11-24T06:11:11.210Z,67.95
2022-11-24T06:12:11.247Z,71.78
2022-11-24T06:13:11.247Z,63.78
2022-11-24T06:14:11.740Z,70.61
2022-11-24T06:15:12.169Z,70.80
2022-11-24T06:16:11.218Z,70.60
2022-11-24T06:17:11.148Z,71.04
2022-11-24T06:18:11.149Z,74.93
2022-11-24T06:19:11.129Z,72.06
2022-11-24T06:20:11.135Z,65.04
2022-11-24T06:21:12.067Z,74.15
2022-11-24T06:22:12.116Z,73.52
2022-11-24T06:23:11.181Z,71.88
2022-11-24T06:24:11.207Z,67.49
2022-11-24T06:25:11.085Z,72.01
2022-11-24T06:26:11.118Z,66.49
2022-11-24T06:27:11.109Z,68.89
2022-11-24T06:28:11.106Z,73.75
2022-11-24T06:29:11.054Z,72.84
2022-11-24T06:30:11.045Z,70.01
2022-11-24T06:31:11.061Z,72.88
2022-11-24T06:32:11.035Z,72.82
2022-11-24T06:33:11.095Z,72.69
2022-11-24T06:34:11.049Z,72.71
2022-11-24T06:35:11.022Z,74.10
2022-11-24T06:36:11.009Z,67.91
2022-11-24T06:37:11.009Z,70.80
2022-11-24T06:38:10.997Z,67.87
2022-11-24T06:39:11.266Z,73.39
2022-11-24T06:40:10.977Z,72.29
2022-11-24T06:41:10.969Z,70.69
2022-11-24T06:42:10.981Z,72.19
2022-11-24T06:43:10.956Z,72.95
2022-11-24T06:44:10.966Z,72.66
2022-11-24T06:45:10.934Z,70.50
2022-11-24T06:46:10.993Z,71.71
2022-11-24T06:47:10.909Z,69.96
2022-11-24T06:48:10.917Z,71.69
2022-11-24T06:49:10.928Z,70.60
2022-11-24T06:50:10.891Z,68.37
2022-11-24T06:51:10.875Z,74.60
2022-11-24T06:52:10.871Z,73.53
2022-11-24T06:53:10.879Z,71.24
2022-11-24T06:54:10.858Z,68.05
2022-11-24T06:55:10.907Z,69.20
2022-11-24T06:56:16.100Z,70.03
2022-11-24T06:57:12.846Z,71.77
2022-11-24T06:58:10.856Z,72.43
2022-11-24T06:59:10.816Z,68.33
2022-11-24T07:00:10.828Z,65.49
2022-11-24T07:01:10.854Z,64.98
2022-11-24T07:02:10.919Z,72.16
2022-11-24T07:03:10.893Z,70.77
2022-11-24T07:04:10.794Z,70.27
2022-11-24T07:05:10.763Z,66.81
2022-11-24T07:06:10.770Z,71.34
2022-11-24T07:07:10.818Z,70.12
2022-11-24T07:08:16.170Z,61.67
2022-11-24T07:09:12.766Z,67.35
2022-11-24T07:10:10.769Z,68.57
2022-11-24T07:11:10.719Z,68.82
2022-11-24T07:12:10.775Z,72.78
2022-11-24T07:13:10.721Z,70.44
2022-11-24T07:14:10.697Z,64.45
2022-11-24T07:15:10.704Z,67.16
2022-11-24T07:16:10.739Z,68.40
2022-11-24T07:17:10.700Z,65.46
2022-11-24T07:18:10.656Z,62.36
2022-11-24T07:19:10.693Z,64.71
2022-11-24T07:20:10.671Z,67.80
2022-11-24T07:21:10.636Z,68.89
2022-11-24T07:22:10.675Z,69.60
2022-11-24T07:23:42.586Z,69.50
2022-11-24T07:24:10.613Z,71.76
2022-11-24T07:25:10.633Z,73.22
2022-11-24T07:26:10.644Z,67.38
2022-11-24T07:27:10.656Z,67.96
2022-11-24T07:28:10.595Z,64.09
2022-11-24T07:29:10.666Z,62.09
2022-11-24T07:30:10.592Z,68.88
2022-11-24T07:31:11.403Z,69.21
2022-11-24T07:32:10.726Z,71.73
2022-11-24T07:33:10.571Z,71.98
2022-11-24T07:34:10.613Z,72.53
2022-11-24T07:35:10.571Z,68.70
2022-11-24T07:36:10.550Z,67.92
2022-11-24T07:37:11.603Z,65.77
2022-11-24T07:38:10.555Z,72.32
2022-11-24T07:39:10.510Z,70.86
2022-11-24T07:40:10.513Z,72.65
2022-11-24T07:41:10.495Z,63.49
2022-11-24T07:42:10.538Z,69.97
2022-11-24T07:43:12.558Z,67.32
2022-11-24T07:44:36.682Z,67.21
2022-11-24T07:45:10.467Z,67.14
2022-11-24T07:46:10.739Z,71.02
2022-11-24T07:47:10.540Z,72.80
2022-11-24T07:48:10.512Z,68.98
2022-11-24T07:49:10.430Z,63.59
2022-11-24T07:50:10.465Z,69.58
2022-11-24T07:51:10.426Z,62.26
2022-11-24T07:52:10.425Z,69.18
2022-11-24T07:53:10.426Z,70.04
2022-11-24T07:54:10.400Z,70.78
2022-11-24T07:55:10.405Z,69.18
2022-11-24T07:56:10.392Z,71.24
2022-11-24T07:57:10.390Z,67.45
2022-11-24T07:58:10.378Z,67.14
2022-11-24T07:59:10.380Z,64.01
2022-11-24T08:00:10.359Z,66.28
2022-11-24T08:01:10.384Z,60.42
2022-11-24T08:02:10.370Z,64.68
2022-11-24T08:03:10.402Z,60.67
2022-11-24T08:04:10.445Z,69.69
2022-11-24T08:05:10.301Z,71.13
2022-11-24T08:06:30.048Z,65.52
2022-11-24T08:07:12.340Z,69.36
2022-11-24T08:08:10.319Z,69.50
2022-11-24T08:09:10.264Z,69.05
2022-11-24T08:10:10.274Z,64.54
2022-11-24T08:11:10.279Z,56.15
2022-11-24T08:12:10.348Z,68.03
2022-11-24T08:13:10.270Z,67.13
2022-11-24T08:14:10.238Z,68.38
2022-11-24T08:15:11.325Z,68.52
2022-11-24T08:16:11.325Z,69.81
2022-11-24T08:17:10.276Z,68.34
2022-11-24T08:18:10.249Z,65.10
2022-11-24T08:19:10.206Z,66.07
2022-11-24T08:20:10.200Z,68.65
2022-11-24T08:21:10.175Z,70.49
2022-11-24T08:22:10.302Z,64.46
2022-11-24T08:23:10.209Z,64.66
2022-11-24T08:24:10.167Z,73.12
2022-11-24T08:25:10.158Z,70.09
2022-11-24T08:26:10.277Z,67.76
2022-11-24T08:27:10.128Z,64.90
2022-11-24T08:28:10.172Z,64.37
2022-11-24T08:29:10.168Z,67.79
2022-11-24T08:30:10.095Z,71.30
2022-11-24T08:31:10.163Z,72.40
2022-11-24T08:32:10.162Z,68.69
2022-11-24T08:33:10.103Z,67.75
2022-11-24T08:34:10.101Z,73.90
2022-11-24T08:35:13.989Z,65.17
2022-11-24T08:36:11.146Z,63.21
2022-11-24T08:37:10.076Z,71.39
2022-11-24T08:38:10.053Z,71.84
2022-11-24T08:39:10.046Z,66.37
2022-11-24T08:40:10.038Z,66.82
2022-11-24T08:41:10.125Z,63.75
2022-11-24T08:42:10.620Z,70.28
2022-11-24T08:43:10.007Z,66.20
2022-11-24T08:44:10.047Z,66.51
2022-11-24T08:45:20.297Z,71.77
2022-11-24T08:46:12.036Z,70.34
2022-11-24T08:47:09.972Z,71.69
2022-11-24T08:48:09.963Z,67.45
2022-11-24T08:49:10.985Z,57.69
2022-11-24T08:50:09.968Z,69.42
2022-11-24T08:51:09.945Z,68.28
2022-11-24T08:52:10.160Z,65.52
2022-11-24T08:53:09.935Z,63.52
2022-11-24T08:54:09.934Z,63.51
2022-11-24T08:55:10.000Z,65.58
2022-11-24T08:56:09.909Z,67.31
2022-11-24T08:57:09.888Z,67.68
2022-11-24T08:58:09.897Z,68.91
2022-11-24T08:59:09.963Z,68.51
2022-11-24T09:00:09.877Z,70.05
2022-11-24T09:01:09.947Z,69.29
2022-11-24T09:02:09.863Z,69.52
2022-11-24T09:03:09.863Z,64.00
2022-11-24T09:04:09.914Z,71.15
2022-11-24T09:05:43.313Z,70.57
2022-11-24T09:06:11.871Z,64.57
2022-11-24T09:07:09.844Z,67.44
2022-11-24T09:08:09.817Z,52.93
2022-11-24T09:09:09.904Z,66.58
2022-11-24T09:10:09.798Z,64.05
2022-11-24T09:11:09.813Z,67.27
2022-11-24T09:12:14.321Z,67.29
2022-11-24T09:13:10.812Z,66.39
2022-11-24T09:14:09.797Z,70.42
2022-11-24T09:15:09.756Z,69.28
2022-11-24T09:16:09.732Z,62.38
2022-11-24T09:17:09.807Z,64.43
2022-11-24T09:18:09.761Z,69.42
2022-11-24T09:19:09.755Z,67.64
2022-11-24T09:20:09.712Z,68.39
2022-11-24T09:21:09.722Z,65.42
2022-11-24T09:22:09.744Z,68.21
2022-11-24T09:23:09.763Z,69.87
2022-11-24T09:24:09.734Z,63.31
2022-11-24T09:25:09.696Z,72.13
2022-11-24T09:26:09.689Z,71.44
2022-11-24T09:27:09.683Z,68.25
2022-11-24T09:28:09.674Z,71.54
2022-11-24T09:29:09.674Z,70.28
2022-11-24T09:30:09.639Z,65.42
2022-11-24T09:31:09.679Z,68.32
2022-11-24T09:32:09.693Z,68.27
2022-11-24T09:33:09.624Z,64.70
2022-11-24T09:34:09.646Z,66.18
2022-11-24T09:35:09.676Z,72.75
2022-11-24T09:36:09.709Z,67.77
2022-11-24T09:37:09.634Z,64.21
2022-11-24T09:38:09.624Z,64.77
2022-11-24T09:39:09.628Z,69.16
2022-11-24T09:40:09.588Z,59.52
2022-11-24T09:41:09.543Z,66.81
2022-11-24T09:42:09.581Z,68.82
2022-11-24T09:43:09.559Z,70.32
2022-11-24T09:44:09.557Z,64.98
2022-11-24T09:45:09.559Z,70.40
2022-11-24T09:46:09.614Z,70.80
2022-11-24T09:47:09.553Z,62.43
2022-11-24T09:48:09.539Z,68.36
2022-11-24T09:49:09.562Z,70.19
2022-11-24T09:50:09.522Z,68.04
2022-11-24T09:51:09.507Z,59.66
2022-11-24T09:52:09.506Z,66.23
2022-11-24T09:53:09.612Z,69.25
2022-11-24T09:54:09.479Z,64.70
2022-11-24T09:55:09.556Z,66.86
2022-11-24T09:56:09.504Z,71.45
2022-11-24T09:57:09.436Z,69.57
2022-11-24T09:58:09.454Z,65.28
2022-11-24T09:59:09.449Z,69.13
2022-11-24T10:00:09.405Z,66.85
2022-11-24T10:01:09.482Z,60.26
2022-11-24T10:02:09.410Z,69.65
2022-11-24T10:03:09.424Z,67.40
2022-11-24T10:04:09.413Z,68.97
2022-11-24T10:05:09.534Z,70.69
2022-11-24T10:06:09.369Z,66.13
2022-11-24T10:07:09.527Z,68.20
2022-11-24T10:08:09.359Z,65.03
2022-11-24T10:09:09.370Z,65.99
2022-11-24T10:10:09.360Z,65.50
2022-11-24T10:11:09.335Z,62.83
2022-11-24T10:12:09.311Z,69.81
2022-11-24T10:13:09.308Z,65.29
2022-11-24T10:14:09.297Z,71.79
2022-11-24T10:15:09.370Z,68.70
2022-11-24T10:16:09.368Z,65.93
2022-11-24T10:17:09.336Z,66.44
2022-11-24T10:18:14.919Z,69.41
2022-11-24T10:19:11.270Z,68.03
2022-11-24T10:20:09.234Z,69.30
2022-11-24T10:21:09.266Z,69.88
2022-11-24T10:22:09.247Z,67.04
2022-11-24T10:23:09.285Z,67.09
2022-11-24T10:24:09.230Z,71.19
2022-11-24T10:25:09.222Z,66.62
2022-11-24T10:26:09.268Z,68.89
2022-11-24T10:27:09.205Z,67.59
2022-11-24T10:28:09.258Z,65.74
2022-11-24T10:29:09.186Z,66.35
2022-11-24T10:30:09.169Z,66.88
2022-11-24T10:31:09.224Z,60.56
2022-11-24T10:32:09.206Z,67.94
2022-11-24T10:33:09.173Z,71.75
2022-11-24T10:34:09.160Z,69.45
2022-11-24T10:35:09.149Z,70.36
2022-11-24T10:36:09.127Z,68.99
2022-11-24T10:37:09.155Z,67.10
2022-11-24T10:38:09.131Z,69.50
2022-11-24T10:39:09.116Z,69.06
2022-11-24T10:40:17.187Z,69.74
2022-11-24T10:41:10.104Z,69.88
2022-11-24T10:42:09.089Z,67.52
2022-11-24T10:43:09.077Z,70.16
2022-11-24T10:44:09.087Z,69.09
2022-11-24T10:45:09.085Z,63.01
2022-11-24T10:46:09.105Z,64.43
2022-11-24T10:47:09.062Z,67.13
2022-11-24T10:48:09.065Z,69.38
2022-11-24T10:49:09.063Z,65.98
2022-11-24T10:50:09.032Z,68.98
2022-11-24T10:51:09.079Z,64.66
2022-11-24T10:52:09.019Z,60.63
2022-11-24T10:53:09.023Z,66.39
2022-11-24T10:54:08.999Z,67.27
2022-11-24T10:55:08.998Z,72.43
2022-11-24T10:56:08.992Z,73.07
2022-11-24T10:57:40.899Z,69.33
2022-11-24T10:58:08.990Z,72.30
2022-11-24T10:59:09.575Z,67.45
2022-11-24T11:00:08.950Z,72.03
2022-11-24T11:01:09.066Z,67.46
2022-11-24T11:02:09.042Z,69.59
2022-11-24T11:03:09.057Z,72.69
2022-11-24T11:04:08.913Z,64.07
2022-11-24T11:05:08.908Z,71.08
2022-11-24T11:06:08.980Z,72.04
2022-11-24T11:07:08.980Z,67.61
2022-11-24T11:08:08.976Z,73.11
2022-11-24T11:09:08.924Z,70.89
2022-11-24T11:10:08.906Z,71.25
2022-11-24T11:11:08.873Z,68.14
2022-11-24T11:12:35.782Z,75.61
2022-11-24T11:13:10.861Z,69.17
2022-11-24T11:14:08.945Z,75.47
2022-11-24T11:15:40.856Z,74.36
2022-11-24T11:16:40.735Z,75.72
2022-11-24T11:17:40.768Z,72.31
2022-11-24T11:18:40.703Z,72.39
2022-11-24T11:19:50.229Z,74.06
2022-11-24T11:20:09.843Z,61.88
2022-11-24T11:21:40.687Z,73.35
2022-11-24T11:22:08.812Z,73.75
2022-11-24T11:23:08.779Z,65.86
2022-11-24T11:24:08.773Z,71.55
2022-11-24T11:25:08.754Z,69.36
2022-11-24T11:26:08.735Z,68.60
2022-11-24T11:27:08.727Z,69.19
2022-11-24T11:28:11.514Z,70.14
2022-11-24T11:31:16.433Z,67.72
2022-11-24T11:34:19.271Z,71.95
2022-11-24T11:35:10.694Z,69.35
2022-11-24T11:36:08.652Z,67.30
2022-11-24T11:37:08.718Z,70.27
2022-11-24T11:38:08.651Z,70.81
2022-11-24T11:39:08.682Z,69.27
2022-11-24T11:40:09.078Z,61.76
2022-11-24T11:41:08.646Z,63.75
2022-11-24T11:42:08.613Z,73.27
2022-11-24T11:43:09.175Z,70.00
2022-11-24T11:44:08.590Z,66.49
2022-11-24T11:45:08.629Z,69.41
2022-11-24T11:46:08.755Z,69.41
2022-11-24T11:47:08.609Z,73.38
2022-11-24T11:48:08.587Z,71.17
2022-11-24T11:49:08.574Z,70.48
2022-11-24T11:50:08.552Z,72.49
2022-11-24T11:51:22.885Z,71.67
2022-11-24T11:52:10.578Z,61.64
2022-11-24T11:53:08.541Z,75.90
2022-11-24T11:54:08.529Z,65.62
2022-11-24T11:55:08.522Z,71.05
2022-11-24T11:56:08.519Z,65.43
2022-11-24T11:57:08.494Z,72.20
2022-11-24T11:58:08.503Z,74.12
2022-11-24T11:59:08.467Z,67.50
2022-11-24T12:00:08.491Z,70.27
2022-11-24T12:01:08.483Z,67.87
2022-11-24T12:02:08.468Z,71.59
2022-11-24T12:03:08.613Z,71.52
2022-11-24T12:04:08.564Z,67.92
2022-11-24T12:05:08.422Z,71.55
2022-11-24T12:06:08.493Z,68.24
2022-11-24T12:07:08.484Z,69.91
2022-11-24T12:08:10.921Z,70.81
2022-11-24T12:09:20.268Z,68.49
2022-11-24T12:10:10.388Z,72.63
2022-11-24T12:11:08.424Z,68.38
2022-11-24T12:12:08.398Z,62.02
2022-11-24T12:13:08.427Z,66.55
2022-11-24T12:14:08.367Z,70.19
2022-11-24T12:15:11.022Z,72.87
2022-11-24T12:16:09.410Z,69.80
2022-11-24T12:17:08.356Z,69.36
2022-11-24T12:18:21.647Z,72.05
2022-11-24T12:19:10.342Z,68.30
2022-11-24T12:20:08.336Z,69.97
2022-11-24T12:21:08.321Z,66.43
2022-11-24T12:22:08.321Z,70.18
2022-11-24T12:23:08.379Z,67.90
2022-11-24T12:24:42.251Z,69.20
2022-11-24T12:25:08.349Z,74.87
2022-11-24T12:26:41.668Z,71.56
2022-11-24T12:27:08.277Z,70.54
2022-11-24T12:28:08.249Z,67.68
2022-11-24T12:29:08.329Z,69.72
2022-11-24T12:30:08.246Z,66.34
2022-11-24T12:31:08.307Z,65.59
2022-11-24T12:32:08.257Z,71.72
2022-11-24T12:33:09.390Z,71.61
2022-11-24T12:34:08.278Z,65.73
2022-11-24T12:35:08.780Z,74.55
2022-11-24T12:36:08.212Z,66.74
2022-11-24T12:37:08.198Z,71.81
2022-11-24T12:38:08.213Z,71.30
2022-11-24T12:39:08.209Z,70.68
2022-11-24T12:40:10.030Z,71.46
2022-11-24T12:42:10.221Z,69.45
2022-11-24T12:43:08.654Z,68.53
2022-11-24T12:44:08.134Z,70.99
2022-11-24T12:45:08.165Z,72.33
2022-11-24T12:46:11.172Z,70.88
2022-11-24T12:47:10.188Z,68.56
2022-11-24T12:48:08.178Z,67.64
2022-11-24T12:49:08.170Z,71.60
2022-11-24T12:50:08.198Z,70.90
2022-11-24T12:51:08.150Z,70.13
2022-11-24T12:52:08.113Z,72.77
2022-11-24T12:53:08.049Z,65.38
2022-11-24T12:54:08.111Z,69.19
2022-11-24T12:55:08.070Z,68.14
2022-11-24T12:56:08.054Z,72.58
2022-11-24T12:57:08.040Z,63.20
2022-11-24T12:58:11.271Z,67.53
2022-11-24T12:59:09.067Z,68.26
2022-11-24T13:00:08.007Z,73.05
2022-11-24T13:01:13.006Z,72.83
2022-11-24T13:02:10.076Z,67.89
2022-11-24T13:03:08.067Z,72.08
2022-11-24T13:04:08.035Z,67.54
2022-11-24T13:05:08.689Z,74.59
2022-11-24T13:06:07.964Z,74.07
2022-11-24T13:07:09.654Z,69.58
2022-11-24T13:08:07.979Z,71.50
2022-11-24T13:09:08.064Z,72.05
2022-11-24T13:10:07.909Z,71.67
2022-11-24T13:11:08.117Z,67.95
2022-11-24T13:12:08.196Z,71.92
2022-11-24T13:13:07.916Z,70.01
2022-11-24T13:14:07.924Z,71.06
2022-11-24T13:15:07.937Z,70.76
2022-11-24T13:18:12.495Z,71.82
2022-11-24T13:19:08.957Z,69.46
2022-11-24T13:20:07.984Z,67.96
2022-11-24T13:21:07.875Z,69.87
2022-11-24T13:22:07.835Z,70.15
2022-11-24T13:23:10.781Z,73.73
2022-11-24T13:24:09.914Z,68.13